createdAt,value
2022-11-16T00:01:29.414Z,10.46
2022-11-16T00:03:58.390Z,10.01
2022-11-16T00:06:25.803Z,10.37
2022-11-16T00:09:14.724Z,10.77
2022-11-16T00:11:42.340Z,11.19
2022-11-16T00:14:09.680Z,10.23
2022-11-16T00:16:37.101Z,10.25
2022-11-16T00:19:05.503Z,10.16
2022-11-16T00:21:33.046Z,10.83
2022-11-16T00:24:00.556Z,10.43
2022-11-16T00:26:28.162Z,10.71
2022-11-16T00:28:55.778Z,10.48
2022-11-16T00:31:23.151Z,10.73
2022-11-16T00:33:50.833Z,10.84
2022-11-16T00:36:18.215Z,10.05
2022-11-16T00:38:45.598Z,10.65
2022-11-16T00:41:13.471Z,9.43
2022-11-16T00:43:40.880Z,10.29
2022-11-16T00:46:08.967Z,10.17
2022-11-16T00:48:36.818Z,10.43
2022-11-16T00:51:04.817Z,10.38
2022-11-16T00:53:32.319Z,9.71
2022-11-16T00:55:59.941Z,9.62
2022-11-16T00:58:27.450Z,9.99
2022-11-16T01:00:55.112Z,9.97
2022-11-16T01:03:24.600Z,10.54
2022-11-16T01:05:51.971Z,10.77
2022-11-16T01:08:19.317Z,10.51
2022-11-16T01:10:46.925Z,10.50
2022-11-16T01:13:14.269Z,10.83
2022-11-16T01:15:47.839Z,10.74
2022-11-16T01:18:15.425Z,10.75
2022-11-16T01:20:42.780Z,10.43
2022-11-16T01:23:10.297Z,9.63
2022-11-16T01:25:37.926Z,10.57
2022-11-16T01:28:05.282Z,10.68
2022-11-16T01:30:34.281Z,10.58
2022-11-16T01:33:02.203Z,10.84
2022-11-16T01:35:29.615Z,10.35
2022-11-16T01:37:57.340Z,10.46
2022-11-16T01:40:24.984Z,10.62
2022-11-16T01:42:52.327Z,10.72
2022-11-16T01:45:42.922Z,10.89
2022-11-16T01:48:12.571Z,10.44
2022-11-16T01:50:40.039Z,10.26
2022-11-16T01:53:07.361Z,9.79
2022-11-16T01:55:35.778Z,9.75
2022-11-16T01:58:04.494Z,9.90
2022-11-16T02:00:32.064Z,10.33
2022-11-16T02:03:00.503Z,10.83
2022-11-16T02:06:01.453Z,10.49
2022-11-16T02:09:03.799Z,9.79
2022-11-16T02:11:32.052Z,10.63
2022-11-16T02:14:34.902Z,10.65
2022-11-16T02:17:24.072Z,10.56
2022-11-16T02:19:54.612Z,10.66
2022-11-16T02:22:37.837Z,10.06
2022-11-16T02:25:26.389Z,10.61
2022-11-16T02:28:30.606Z,10.61
2022-11-16T02:30:58.367Z,10.60
2022-11-16T02:33:28.255Z,10.40
2022-11-16T02:35:56.688Z,9.97
2022-11-16T02:38:30.033Z,10.76
2022-11-16T02:41:05.949Z,10.52
2022-11-16T02:43:36.290Z,10.17
2022-11-16T02:46:06.162Z,10.47
2022-11-16T02:48:36.994Z,9.84
2022-11-16T02:51:06.430Z,9.59
2022-11-16T02:53:37.560Z,9.66
2022-11-16T02:56:05.291Z,10.53
2022-11-16T02:58:33.049Z,10.84
2022-11-16T03:01:06.092Z,10.60
2022-11-16T03:03:43.455Z,10.75
2022-11-16T03:06:17.554Z,10.24
2022-11-16T03:08:48.128Z,10.51
2022-11-16T03:11:34.375Z,10.51
2022-11-16T03:14:13.803Z,10.85
2022-11-16T03:17:00.816Z,10.98
2022-11-16T03:19:41.727Z,9.84
2022-11-16T03:22:39.228Z,10.00
2022-11-16T03:25:07.075Z,10.36
2022-11-16T03:27:38.678Z,10.21
2022-11-16T03:30:13.225Z,10.54
2022-11-16T03:33:31.416Z,10.72
2022-11-16T03:36:03.871Z,10.28
2022-11-16T03:38:32.256Z,10.86
2022-11-16T03:41:02.612Z,10.68
2022-11-16T03:43:30.369Z,10.88
2022-11-16T03:45:58.235Z,11.02
2022-11-16T03:48:25.612Z,10.35
2022-11-16T03:50:52.993Z,10.42
2022-11-16T03:53:20.747Z,10.85
2022-11-16T03:55:49.947Z,10.86
2022-11-16T03:58:18.711Z,10.37
2022-11-16T04:00:46.840Z,9.46
2022-11-16T04:03:14.514Z,10.09
2022-11-16T04:06:00.848Z,10.26
2022-11-16T04:08:47.233Z,10.33
2022-11-16T04:11:33.376Z,10.13
2022-11-16T04:14:19.777Z,10.72
2022-11-16T04:17:05.908Z,10.86
2022-11-16T04:20:02.360Z,10.53
2022-11-16T04:22:51.579Z,10.49
2022-11-16T04:25:23.290Z,10.74
2022-11-16T04:28:09.769Z,10.54
2022-11-16T04:30:56.699Z,10.69
2022-11-16T04:33:42.748Z,10.43
2022-11-16T04:36:29.148Z,10.71
2022-11-16T04:38:56.287Z,10.42
2022-11-16T04:41:42.941Z,9.78
2022-11-16T04:44:10.768Z,9.96
2022-11-16T04:46:57.484Z,10.30
2022-11-16T04:49:24.884Z,10.70
2022-11-16T04:51:53.442Z,10.71
2022-11-16T04:54:20.956Z,10.30
2022-11-16T04:56:48.332Z,10.81
2022-11-16T04:59:16.357Z,10.49
2022-11-16T05:02:03.029Z,10.81
2022-11-16T05:04:30.673Z,10.89
2022-11-16T05:06:58.993Z,10.10
2022-11-16T05:09:26.419Z,10.30
2022-11-16T05:11:54.071Z,10.58
2022-11-16T05:14:21.425Z,10.36
2022-11-16T05:16:49.198Z,10.87
2022-11-16T05:19:35.671Z,9.79
2022-11-16T05:22:03.166Z,9.90
2022-11-16T05:24:34.173Z,9.47
2022-11-16T05:27:06.486Z,10.09
2022-11-16T05:29:34.221Z,10.26
2022-11-16T05:32:01.976Z,10.09
2022-11-16T05:34:29.436Z,10.11
2022-11-16T05:36:57.256Z,10.01
2022-11-16T05:39:24.750Z,10.36
2022-11-16T05:41:52.459Z,9.70
2022-11-16T05:44:20.554Z,9.95
2022-11-16T05:46:48.155Z,10.02
2022-11-16T05:49:16.167Z,9.75
2022-11-16T05:51:44.700Z,10.04
2022-11-16T05:54:16.882Z,10.31
2022-11-16T05:56:44.876Z,10.12
2022-11-16T05:59:16.572Z,9.44
2022-11-16T06:01:44.563Z,10.13
2022-11-16T06:04:12.514Z,10.59
2022-11-16T06:06:39.985Z,10.43
2022-11-16T06:09:08.600Z,10.53
2022-11-16T06:11:38.146Z,10.38
2022-11-16T06:14:05.805Z,10.07
2022-11-16T06:16:33.565Z,10.63
2022-11-16T06:19:02.254Z,10.98
2022-11-16T06:21:29.630Z,10.69
2022-11-16T06:23:57.133Z,10.91
2022-11-16T06:26:24.747Z,11.26
2022-11-16T06:28:54.876Z,11.00
2022-11-16T06:31:22.816Z,10.51
2022-11-16T06:33:50.726Z,10.02
2022-11-16T06:36:22.741Z,10.83
2022-11-16T06:38:52.330Z,11.05
2022-11-16T06:41:20.053Z,10.75
2022-11-16T06:43:48.344Z,11.11
2022-11-16T06:46:16.450Z,11.31
2022-11-16T06:48:43.986Z,11.21
2022-11-16T06:51:11.564Z,11.02
2022-11-16T06:56:24.542Z,10.59
2022-11-16T06:58:53.679Z,11.28
2022-11-16T07:01:21.605Z,11.04
2022-11-16T07:03:49.552Z,11.45
2022-11-16T07:06:17.196Z,11.24
2022-11-16T07:08:44.706Z,10.92
2022-11-16T07:11:12.487Z,11.25
2022-11-16T07:13:40.110Z,11.26
2022-11-16T07:16:09.936Z,11.09
2022-11-16T07:18:39.403Z,10.31
2022-11-16T07:21:08.230Z,11.13
2022-11-16T07:23:35.810Z,10.53
2022-11-16T07:26:04.015Z,10.62
2022-11-16T07:28:32.616Z,10.76
2022-11-16T07:31:03.568Z,10.35
2022-11-16T07:33:31.143Z,10.81
2022-11-16T07:36:08.303Z,10.52
2022-11-16T07:38:36.392Z,10.65
2022-11-16T07:41:25.069Z,9.93
2022-11-16T07:43:53.609Z,9.53
2022-11-16T07:49:18.144Z,10.81
2022-11-16T07:51:46.193Z,10.72
2022-11-16T07:54:16.488Z,10.97
2022-11-16T07:56:47.282Z,11.21
2022-11-16T07:59:14.679Z,11.37
2022-11-16T08:01:42.661Z,11.52
2022-11-16T08:04:10.675Z,11.35
2022-11-16T08:06:38.743Z,11.58
2022-11-16T08:09:06.052Z,11.21
2022-11-16T08:11:33.975Z,11.49
2022-11-16T08:14:01.691Z,11.61
2022-11-16T08:16:30.207Z,11.57
2022-11-16T08:19:00.286Z,11.43
2022-11-16T08:21:28.254Z,11.48
2022-11-16T08:23:58.678Z,11.45
2022-11-16T08:26:27.753Z,11.39
2022-11-16T08:28:56.684Z,10.55
2022-11-16T08:31:26.676Z,10.60
2022-11-16T08:33:55.033Z,11.00
2022-11-16T08:36:22.608Z,11.26
2022-11-16T08:38:50.962Z,10.29
2022-11-16T08:41:19.744Z,10.48
2022-11-16T08:43:47.374Z,11.15
2022-11-16T08:46:15.738Z,11.23
2022-11-16T08:48:44.431Z,11.05
2022-11-16T08:53:59.253Z,11.35
2022-11-16T08:56:27.474Z,10.04
2022-11-16T08:58:58.824Z,9.93
2022-11-16T09:01:28.351Z,10.53
2022-11-16T09:03:55.803Z,10.73
2022-11-16T09:06:24.102Z,11.24
2022-11-16T09:08:51.849Z,11.62
2022-11-16T09:11:21.024Z,11.25
2022-11-16T09:13:49.086Z,10.84
2022-11-16T09:16:16.945Z,11.51
2022-11-16T09:18:46.664Z,11.63
2022-11-16T09:21:25.768Z,11.24
2022-11-16T09:23:53.731Z,11.35
2022-11-16T09:26:22.970Z,9.77
2022-11-16T09:28:58.369Z,10.44
2022-11-16T09:31:29.751Z,11.24
2022-11-16T09:33:58.680Z,10.81
2022-11-16T09:36:27.659Z,10.93
2022-11-16T09:39:23.774Z,10.88
2022-11-16T09:42:01.010Z,10.71
2022-11-16T09:44:53.861Z,11.39
2022-11-16T09:47:23.597Z,11.40
2022-11-16T09:50:01.577Z,11.52
2022-11-16T09:52:32.388Z,11.27
2022-11-16T09:55:00.505Z,10.56
2022-11-16T09:57:34.166Z,11.26
2022-11-16T10:00:09.726Z,11.33
2022-11-16T10:03:13.052Z,11.38
2022-11-16T10:05:49.978Z,10.83
2022-11-16T10:08:23.204Z,10.53
2022-11-16T10:11:03.134Z,10.74
2022-11-16T10:13:49.281Z,10.99
2022-11-16T10:16:26.042Z,11.07
2022-11-16T10:18:58.487Z,11.54
2022-11-16T10:21:45.206Z,11.30
2022-11-16T10:24:33.287Z,11.18
2022-11-16T10:27:38.585Z,11.00
2022-11-16T10:30:16.191Z,10.91
2022-11-16T10:33:09.654Z,11.11
2022-11-16T10:35:53.681Z,11.17
2022-11-16T10:38:27.459Z,11.15
2022-11-16T10:41:21.512Z,11.42
2022-11-16T10:43:49.444Z,11.04
2022-11-16T10:46:22.517Z,11.37
2022-11-16T10:49:17.735Z,10.88
2022-11-16T10:51:45.228Z,11.31
2022-11-16T10:54:13.644Z,11.42
2022-11-16T10:56:45.579Z,11.68
2022-11-16T10:59:13.930Z,11.96
2022-11-16T11:01:43.608Z,11.32
2022-11-16T11:04:22.307Z,11.82
2022-11-16T11:07:00.382Z,11.82
2022-11-16T11:09:31.745Z,11.14
2022-11-16T11:12:37.559Z,11.65
2022-11-16T11:15:10.659Z,11.49
2022-11-16T11:17:42.715Z,10.53
2022-11-16T11:20:16.273Z,10.97
2022-11-16T11:22:58.008Z,10.32
2022-11-16T11:25:28.473Z,11.34
2022-11-16T11:28:20.600Z,11.05
2022-11-16T11:31:25.969Z,11.32
2022-11-16T11:33:56.041Z,11.60
2022-11-16T11:36:27.884Z,11.61
2022-11-16T11:41:45.423Z,10.96
2022-11-16T11:44:22.839Z,11.03
2022-11-16T11:47:42.340Z,11.53
2022-11-16T11:49:49.853Z,11.28
2022-11-16T11:52:21.806Z,11.11
2022-11-16T11:54:49.416Z,11.34
2022-11-16T11:57:22.216Z,10.12
2022-11-16T11:59:52.344Z,11.19
2022-11-16T12:02:39.562Z,11.35
2022-11-16T12:05:45.166Z,11.35
2022-11-16T12:08:14.692Z,11.37
2022-11-16T12:11:10.051Z,11.93
2022-11-16T12:13:55.682Z,11.79
2022-11-16T12:16:38.616Z,12.01
2022-11-16T12:19:08.827Z,11.76
2022-11-16T12:21:47.148Z,12.16
2022-11-16T12:24:32.218Z,10.73
2022-11-16T12:27:09.707Z,11.59
2022-11-16T12:29:58.544Z,11.40
2022-11-16T12:32:32.173Z,11.12
2022-11-16T12:35:21.240Z,11.46
2022-11-16T12:38:09.376Z,11.63
2022-11-16T12:40:58.146Z,11.32
2022-11-16T12:43:46.368Z,11.82
2022-11-16T12:46:23.528Z,11.69
2022-11-16T12:49:24.187Z,11.78
2022-11-16T12:52:01.492Z,11.85
2022-11-16T12:55:24.835Z,10.72
2022-11-16T12:57:55.284Z,11.00
2022-11-16T13:00:22.880Z,11.95
2022-11-16T13:02:56.224Z,11.57
2022-11-16T13:05:39.535Z,11.42
2022-11-16T13:08:27.938Z,11.16
2022-11-16T13:11:02.473Z,11.67
2022-11-16T13:13:36.452Z,11.80
2022-11-16T13:16:05.305Z,11.63
2022-11-16T13:18:32.812Z,11.73
2022-11-16T13:21:05.589Z,11.86
2022-11-16T13:23:55.916Z,11.92
2022-11-16T13:26:30.667Z,11.86
2022-11-16T13:29:28.631Z,11.42
2022-11-16T13:32:00.977Z,11.69
2022-11-16T13:34:32.768Z,11.30
2022-11-16T13:37:00.109Z,10.53
2022-11-16T13:39:58.717Z,11.24
2022-11-16T13:42:26.581Z,10.88
2022-11-16T13:44:53.915Z,11.32
2022-11-16T13:47:23.203Z,11.48
2022-11-16T13:49:56.622Z,11.37
2022-11-16T13:52:31.589Z,11.41
2022-11-16T13:55:15.747Z,11.73
2022-11-16T13:57:52.607Z,11.25
2022-11-16T14:00:25.772Z,11.32
2022-11-16T14:03:22.375Z,11.64
2022-11-16T14:05:50.885Z,11.63
2022-11-16T14:08:24.494Z,12.03
2022-11-16T14:10:51.811Z,11.58
2022-11-16T14:13:47.438Z,11.74
2022-11-16T14:16:19.530Z,11.62
2022-11-16T14:18:51.950Z,11.68
2022-11-16T14:21:19.471Z,11.90
2022-11-16T14:23:59.351Z,11.39
2022-11-16T14:26:38.740Z,11.96
2022-11-16T14:29:21.603Z,11.86
2022-11-16T14:32:00.728Z,11.82
2022-11-16T14:34:42.338Z,11.38
2022-11-16T14:37:21.810Z,11.68
2022-11-16T14:39:50.471Z,11.93
2022-11-16T14:43:01.536Z,11.77
2022-11-16T14:45:32.015Z,11.79
2022-11-16T14:48:01.685Z,12.10
2022-11-16T14:50:30.248Z,12.07
2022-11-16T14:53:00.536Z,11.93
2022-11-16T14:55:27.925Z,12.34
2022-11-16T14:58:16.514Z,12.06
2022-11-16T15:00:54.919Z,12.42
2022-11-16T15:03:23.737Z,11.96
2022-11-16T15:05:51.451Z,12.02
2022-11-16T15:08:23.417Z,11.88
2022-11-16T15:10:52.500Z,12.04
2022-11-16T15:13:21.086Z,12.35
2022-11-16T15:15:49.130Z,12.47
2022-11-16T15:18:20.717Z,12.38
2022-11-16T15:20:50.247Z,12.38
2022-11-16T15:23:18.507Z,12.24
2022-11-16T15:25:55.842Z,12.50
2022-11-16T15:28:27.986Z,12.51
2022-11-16T15:30:59.924Z,12.39
2022-11-16T15:33:37.741Z,12.39
2022-11-16T15:36:24.078Z,12.27
2022-11-16T15:38:53.399Z,12.49
2022-11-16T15:41:20.727Z,12.57
2022-11-16T15:44:12.413Z,12.75
2022-11-16T15:46:40.571Z,12.76
2022-11-16T15:49:31.426Z,11.67
2022-11-16T15:51:59.211Z,12.16
2022-11-16T15:54:28.598Z,11.75
2022-11-16T15:56:57.187Z,12.15
2022-11-16T15:59:30.182Z,12.24
2022-11-16T16:01:57.607Z,12.18
2022-11-16T16:04:25.194Z,12.31
2022-11-16T16:06:54.137Z,12.16
2022-11-16T16:09:23.125Z,12.01
2022-11-16T16:11:51.884Z,11.89
2022-11-16T16:14:29.709Z,12.11
2022-11-16T16:17:00.466Z,12.16
2022-11-16T16:19:31.615Z,11.27
2022-11-16T16:21:59.580Z,11.87
2022-11-16T16:24:45.960Z,12.15
2022-11-16T16:27:18.195Z,12.40
2022-11-16T16:29:46.481Z,12.34
2022-11-16T16:32:29.972Z,12.48
2022-11-16T16:34:58.983Z,12.48
2022-11-16T16:37:27.470Z,12.41
2022-11-16T16:39:54.841Z,12.46
2022-11-16T16:42:22.183Z,12.37
2022-11-16T16:44:50.044Z,12.43
2022-11-16T16:47:17.589Z,12.58
2022-11-16T16:49:44.923Z,12.33
2022-11-16T16:52:12.670Z,11.92
2022-11-16T16:54:40.560Z,12.36
2022-11-16T16:57:13.210Z,11.71
2022-11-16T16:59:40.800Z,12.31
2022-11-16T17:02:11.329Z,11.77
2022-11-16T17:04:38.645Z,11.89
2022-11-16T17:07:06.386Z,11.89
2022-11-16T17:09:33.800Z,11.81
2022-11-16T17:12:01.219Z,11.15
2022-11-16T17:14:28.843Z,11.53
2022-11-16T17:16:56.178Z,11.56
2022-11-16T17:19:23.540Z,11.94
2022-11-16T17:21:51.908Z,11.95
2022-11-16T17:24:19.362Z,11.70
2022-11-16T17:26:50.525Z,11.68
2022-11-16T17:29:18.142Z,11.54
2022-11-16T17:31:47.237Z,11.44
2022-11-16T17:34:14.697Z,11.73
2022-11-16T17:36:43.162Z,11.60
2022-11-16T17:39:10.554Z,11.54
2022-11-16T17:41:37.950Z,11.95
2022-11-16T17:44:06.196Z,11.92
2022-11-16T17:46:33.537Z,11.60
2022-11-16T17:49:01.054Z,11.10
2022-11-16T17:51:31.896Z,11.49
2022-11-16T17:53:59.292Z,11.70
2022-11-16T17:56:27.199Z,11.57
2022-11-16T17:58:55.463Z,11.57
2022-11-16T18:01:22.999Z,11.80
2022-11-16T18:03:50.681Z,11.81
2022-11-16T18:06:19.364Z,11.35
2022-11-16T18:08:46.996Z,11.38
2022-11-16T18:11:21.903Z,11.62
2022-11-16T18:13:53.535Z,11.86
2022-11-16T18:16:22.180Z,11.23
2022-11-16T18:18:49.584Z,11.71
2022-11-16T18:21:20.697Z,11.76
2022-11-16T18:23:48.609Z,11.49
2022-11-16T18:26:17.489Z,11.81
2022-11-16T18:28:45.387Z,11.37
2022-11-16T18:31:15.370Z,11.75
2022-11-16T18:33:42.923Z,11.20
2022-11-16T18:36:10.659Z,11.19
2022-11-16T18:38:38.295Z,11.24
2022-11-16T18:41:11.324Z,11.50
2022-11-16T18:43:39.606Z,11.41
2022-11-16T18:46:06.957Z,11.23
2022-11-16T18:48:34.282Z,11.00
2022-11-16T18:51:02.672Z,11.31
2022-11-16T18:53:30.510Z,11.59
2022-11-16T18:55:58.363Z,11.65
2022-11-16T19:01:17.454Z,11.61
2022-11-16T19:03:45.059Z,11.92
2022-11-16T19:06:12.464Z,11.70
2022-11-16T19:08:40.442Z,11.91
2022-11-16T19:11:12.329Z,11.91
2022-11-16T19:13:40.416Z,11.55
2022-11-16T19:16:08.730Z,10.82
2022-11-16T19:18:36.696Z,11.00
2022-11-16T19:21:08.743Z,11.33
2022-11-16T19:23:43.729Z,11.36
2022-11-16T19:26:12.883Z,11.15
2022-11-16T19:28:42.062Z,10.25
2022-11-16T19:31:10.466Z,10.63
2022-11-16T19:33:38.283Z,10.58
2022-11-16T19:36:16.464Z,10.33
2022-11-16T19:38:44.390Z,10.88
2022-11-16T19:41:12.523Z,10.61
2022-11-16T19:43:39.918Z,10.63
2022-11-16T19:46:16.650Z,11.26
2022-11-16T19:48:44.657Z,11.16
2022-11-16T19:51:19.375Z,10.75
2022-11-16T19:53:47.100Z,10.60
2022-11-16T19:56:16.123Z,10.59
2022-11-16T19:58:43.480Z,10.51
2022-11-16T20:01:12.652Z,10.95
2022-11-16T20:03:41.872Z,11.30
2022-11-16T20:06:21.677Z,10.96
2022-11-16T20:08:50.638Z,10.84
2022-11-16T20:11:28.156Z,11.44
2022-11-16T20:13:56.172Z,11.11
2022-11-16T20:16:25.039Z,11.03
2022-11-16T20:18:52.520Z,11.09
2022-11-16T20:21:24.006Z,11.06
2022-11-16T20:23:51.970Z,11.27
2022-11-16T20:26:22.921Z,11.28
2022-11-16T20:28:53.637Z,11.47
2022-11-16T20:31:22.777Z,10.73
2022-11-16T20:33:51.484Z,10.61
2022-11-16T20:36:18.882Z,10.82
2022-11-16T20:38:46.485Z,10.84
2022-11-16T20:41:24.071Z,10.29
2022-11-16T20:43:52.590Z,10.90
2022-11-16T20:46:20.936Z,10.86
2022-11-16T20:48:48.307Z,10.64
2022-11-16T20:51:17.163Z,10.84
2022-11-16T20:53:44.864Z,10.80
2022-11-16T20:56:12.201Z,10.79
2022-11-16T20:58:39.871Z,10.92
2022-11-16T21:01:11.291Z,10.64
2022-11-16T21:03:38.939Z,10.39
2022-11-16T21:06:09.747Z,10.70
2022-11-16T21:08:37.152Z,10.31
2022-11-16T21:11:14.899Z,10.05
2022-11-16T21:14:01.277Z,9.98
2022-11-16T21:16:28.599Z,10.26
2022-11-16T21:18:56.205Z,10.42
2022-11-16T21:21:24.337Z,10.56
2022-11-16T21:23:51.913Z,10.51
2022-11-16T21:26:29.433Z,9.96
2022-11-16T21:28:56.978Z,10.12
2022-11-16T21:31:29.798Z,10.20
2022-11-16T21:33:57.269Z,10.21
2022-11-16T21:36:26.061Z,10.41
2022-11-16T21:38:53.556Z,10.64
2022-11-16T21:41:21.844Z,10.76
2022-11-16T21:43:49.456Z,10.55
2022-11-16T21:46:18.548Z,10.63
2022-11-16T21:48:47.738Z,10.48
2022-11-16T21:51:16.725Z,10.83
2022-11-16T21:53:44.160Z,10.62
2022-11-16T21:56:16.424Z,10.66
2022-11-16T21:58:44.073Z,10.34
2022-11-16T22:01:11.618Z,10.54
2022-11-16T22:03:39.352Z,10.59
2022-11-16T22:06:25.531Z,10.86
2022-11-16T22:08:52.959Z,10.83
2022-11-16T22:11:22.130Z,10.31
2022-11-16T22:13:49.893Z,9.90
2022-11-16T22:16:18.365Z,10.50
2022-11-16T22:18:45.752Z,10.52
2022-11-16T22:21:13.169Z,10.18
2022-11-16T22:23:41.027Z,10.72
2022-11-16T22:26:10.101Z,10.84
2022-11-16T22:28:37.535Z,10.52
2022-11-16T22:31:12.493Z,10.13
2022-11-16T22:33:40.128Z,9.85
2022-11-16T22:36:09.345Z,9.88
2022-11-16T22:38:36.787Z,10.26
2022-11-16T22:41:04.319Z,10.19
2022-11-16T22:43:32.535Z,10.09
2022-11-16T22:46:04.577Z,10.34
2022-11-16T22:48:33.171Z,10.11
2022-11-16T22:51:29.630Z,10.60
2022-11-16T22:54:00.561Z,10.78
2022-11-16T22:56:28.557Z,10.30
2022-11-16T22:58:55.888Z,10.77
2022-11-16T23:01:23.676Z,11.28
2022-11-16T23:03:51.126Z,11.05
2022-11-16T23:06:18.541Z,10.97
2022-11-16T23:08:46.160Z,10.43
2022-11-16T23:11:39.312Z,10.88
2022-11-16T23:14:27.806Z,10.36
2022-11-16T23:16:55.170Z,10.50
2022-11-16T23:19:41.777Z,11.04
2022-11-16T23:22:35.287Z,10.67
2022-11-16T23:25:21.837Z,10.48
2022-11-16T23:28:15.657Z,11.13
2022-11-16T23:30:43.544Z,11.00
2022-11-16T23:33:10.890Z,10.88
2022-11-16T23:35:38.257Z,10.36
2022-11-16T23:38:06.303Z,10.18
2022-11-16T23:40:35.329Z,10.57
2022-11-16T23:43:21.312Z,10.26
2022-11-16T23:45:49.488Z,9.80
2022-11-16T23:48:18.299Z,10.35
2022-11-16T23:50:45.757Z,10.34
2022-11-16T23:53:13.445Z,10.84
2022-11-16T23:55:40.806Z,10.78
2022-11-16T23:58:12.523Z,9.78
